createdAt,value
2022-10-22T00:01:00.747Z,10.67
2022-10-22T00:03:28.373Z,10.65
2022-10-22T00:05:57.559Z,10.66
2022-10-22T00:08:25.103Z,10.65
2022-10-22T00:10:52.862Z,10.65
2022-10-22T00:13:20.809Z,10.64
2022-10-22T00:15:48.407Z,10.63
2022-10-22T00:18:15.997Z,10.63
2022-10-22T00:20:43.665Z,10.63
2022-10-22T00:23:11.135Z,10.64
2022-10-22T00:25:38.651Z,10.63
2022-10-22T00:28:06.238Z,10.66
2022-10-22T00:30:33.795Z,10.66
2022-10-22T00:33:01.298Z,10.69
2022-10-22T00:35:28.805Z,10.70
2022-10-22T00:37:56.277Z,10.73
2022-10-22T00:40:23.819Z,10.73
2022-10-22T00:42:51.296Z,10.73
2022-10-22T00:45:27.030Z,10.73
2022-10-22T00:48:08.106Z,10.74
2022-10-22T00:50:41.058Z,10.74
2022-10-22T00:53:21.815Z,10.73
2022-10-22T00:55:53.739Z,10.72
2022-10-22T00:58:25.327Z,10.72
2022-10-22T01:00:53.172Z,10.70
2022-10-22T01:03:23.332Z,10.70
2022-10-22T01:05:57.110Z,10.69
2022-10-22T01:08:27.314Z,10.68
2022-10-22T01:10:57.513Z,10.67
2022-10-22T01:13:37.765Z,10.68
2022-10-22T01:16:13.728Z,10.66
2022-10-22T01:19:32.193Z,10.69
2022-10-22T01:22:33.431Z,10.66
2022-10-22T01:25:09.252Z,10.65
2022-10-22T01:27:44.114Z,10.60
2022-10-22T01:30:15.842Z,10.55
2022-10-22T01:32:53.531Z,10.48
2022-10-22T01:35:27.800Z,10.42
2022-10-22T01:37:59.507Z,10.38
2022-10-22T01:40:28.146Z,10.36
2022-10-22T01:43:08.945Z,10.37
2022-10-22T01:45:51.502Z,10.42
2022-10-22T01:48:51.463Z,10.47
2022-10-22T01:51:52.649Z,10.47
2022-10-22T01:54:38.790Z,10.46
2022-10-22T01:57:14.667Z,10.47
2022-10-22T01:59:49.774Z,10.44
2022-10-22T02:02:20.196Z,10.43
2022-10-22T02:04:55.080Z,10.41
2022-10-22T02:07:26.750Z,10.38
2022-10-22T02:09:58.394Z,10.35
2022-10-22T02:12:28.158Z,10.30
2022-10-22T02:14:59.474Z,10.27
2022-10-22T02:17:30.570Z,10.22
2022-10-22T02:20:02.566Z,10.19
2022-10-22T02:22:33.347Z,10.13
2022-10-22T02:25:01.571Z,10.07
2022-10-22T02:27:33.374Z,10.00
2022-10-22T02:30:18.788Z,9.94
2022-10-22T02:32:59.119Z,9.88
2022-10-22T02:35:28.869Z,9.81
2022-10-22T02:37:58.139Z,9.75
2022-10-22T02:40:28.668Z,9.68
2022-10-22T02:42:58.466Z,9.63
2022-10-22T02:45:26.333Z,9.54
2022-10-22T02:47:53.847Z,9.49
2022-10-22T02:50:21.656Z,9.39
2022-10-22T02:52:49.137Z,9.26
2022-10-22T02:55:16.783Z,9.17
2022-10-22T02:57:44.283Z,9.08
2022-10-22T03:00:12.392Z,9.00
2022-10-22T03:02:39.895Z,8.92
2022-10-22T03:05:08.010Z,8.85
2022-10-22T03:07:36.131Z,8.80
2022-10-22T03:10:03.926Z,8.72
2022-10-22T03:12:31.407Z,8.60
2022-10-22T03:14:59.429Z,8.53
2022-10-22T03:17:26.913Z,8.43
2022-10-22T03:19:54.385Z,8.36
2022-10-22T03:22:28.499Z,8.25
2022-10-22T03:25:01.410Z,8.19
2022-10-22T03:27:31.076Z,8.12
2022-10-22T03:30:00.619Z,8.10
2022-10-22T03:32:30.358Z,8.07
2022-10-22T03:34:57.847Z,8.04
2022-10-22T03:37:26.754Z,8.00
2022-10-22T03:39:55.644Z,8.00
2022-10-22T03:42:24.658Z,7.95
2022-10-22T03:44:54.530Z,7.96
2022-10-22T03:47:24.385Z,8.00
2022-10-22T03:49:52.844Z,8.00
2022-10-22T03:52:20.353Z,8.04
2022-10-22T03:54:47.814Z,8.00
2022-10-22T03:57:17.749Z,8.01
2022-10-22T03:59:51.112Z,8.02
2022-10-22T04:02:18.761Z,8.03
2022-10-22T04:04:46.237Z,7.98
2022-10-22T04:07:14.584Z,7.99
2022-10-22T04:09:43.064Z,7.98
2022-10-22T04:12:10.615Z,7.95
2022-10-22T04:14:38.103Z,7.93
2022-10-22T04:17:07.077Z,7.88
2022-10-22T04:19:34.600Z,7.93
2022-10-22T04:22:02.485Z,7.91
2022-10-22T04:24:31.980Z,7.93
2022-10-22T04:27:00.013Z,7.93
2022-10-22T04:29:29.996Z,7.97
2022-10-22T04:31:57.825Z,7.99
2022-10-22T04:34:28.441Z,7.99
2022-10-22T04:36:55.981Z,7.98
2022-10-22T04:39:23.629Z,7.97
2022-10-22T04:41:51.186Z,7.96
2022-10-22T04:44:18.822Z,7.93
2022-10-22T04:46:46.838Z,7.94
2022-10-22T04:49:16.814Z,7.89
2022-10-22T04:51:44.305Z,7.91
2022-10-22T04:54:15.019Z,7.91
2022-10-22T04:56:42.763Z,7.87
2022-10-22T04:59:13.066Z,7.88
2022-10-22T05:01:43.987Z,7.87
2022-10-22T05:04:19.674Z,7.83
2022-10-22T05:06:47.379Z,7.86
2022-10-22T05:09:21.079Z,7.86
2022-10-22T05:11:51.343Z,7.85
2022-10-22T05:14:23.274Z,7.85
2022-10-22T05:16:52.321Z,7.88
2022-10-22T05:19:24.932Z,7.87
2022-10-22T05:22:00.259Z,7.86
2022-10-22T05:24:28.734Z,7.88
2022-10-22T05:26:58.006Z,7.90
2022-10-22T05:29:26.297Z,7.93
2022-10-22T05:31:54.246Z,7.98
2022-10-22T05:34:24.373Z,8.04
2022-10-22T05:36:51.888Z,8.09
2022-10-22T05:39:22.043Z,8.13
2022-10-22T05:41:49.548Z,8.20
2022-10-22T05:44:17.045Z,8.26
2022-10-22T05:46:44.610Z,8.34
2022-10-22T05:49:16.576Z,8.39
2022-10-22T05:51:46.852Z,8.47
2022-10-22T05:54:22.188Z,8.55
2022-10-22T05:56:49.903Z,8.62
2022-10-22T05:59:17.730Z,8.72
2022-10-22T06:01:45.368Z,8.81
2022-10-22T06:04:14.314Z,8.87
2022-10-22T06:06:48.415Z,8.92
2022-10-22T06:09:27.940Z,9.06
2022-10-22T06:11:56.933Z,9.16
2022-10-22T06:14:25.407Z,9.24
2022-10-22T06:16:54.141Z,9.30
2022-10-22T06:19:25.724Z,9.40
2022-10-22T06:21:55.741Z,9.49
2022-10-22T06:24:23.281Z,9.58
2022-10-22T06:26:56.274Z,9.69
2022-10-22T06:29:23.781Z,9.80
2022-10-22T06:31:51.298Z,9.91
2022-10-22T06:34:23.696Z,10.04
2022-10-22T06:36:51.715Z,10.18
2022-10-22T06:39:19.434Z,10.30
2022-10-22T06:41:47.404Z,10.47
2022-10-22T06:44:17.152Z,10.66
2022-10-22T06:46:45.103Z,10.85
2022-10-22T06:49:16.410Z,11.09
2022-10-22T06:51:46.474Z,11.28
2022-10-22T06:54:14.271Z,11.48
2022-10-22T06:56:42.140Z,11.73
2022-10-22T06:59:09.662Z,11.99
2022-10-22T07:01:38.729Z,12.15
2022-10-22T07:04:08.914Z,12.17
2022-10-22T07:06:36.738Z,12.27
2022-10-22T07:09:04.482Z,12.25
2022-10-22T07:11:46.661Z,12.44
2022-10-22T07:14:16.685Z,12.57
2022-10-22T07:16:45.681Z,12.47
2022-10-22T07:19:16.801Z,12.46
2022-10-22T07:21:45.959Z,12.43
2022-10-22T07:24:13.506Z,12.26
2022-10-22T07:26:43.385Z,12.15
2022-10-22T07:29:10.933Z,12.17
2022-10-22T07:31:38.468Z,12.48
2022-10-22T07:34:06.539Z,12.72
2022-10-22T07:36:34.271Z,13.53
2022-10-22T07:39:02.522Z,13.94
2022-10-22T07:41:32.876Z,14.38
2022-10-22T07:44:00.978Z,15.92
2022-10-22T07:46:29.009Z,17.03
2022-10-22T07:48:56.642Z,18.03
2022-10-22T07:51:24.383Z,18.99
2022-10-22T07:53:51.964Z,19.51
2022-10-22T07:56:19.833Z,19.77
2022-10-22T07:58:47.351Z,20.26
2022-10-22T08:01:15.479Z,20.72
2022-10-22T08:03:45.505Z,21.25
2022-10-22T08:06:16.159Z,21.51
2022-10-22T08:08:45.723Z,22.14
2022-10-22T08:11:15.837Z,22.03
2022-10-22T08:13:45.695Z,21.64
2022-10-22T08:16:16.001Z,21.59
2022-10-22T08:18:44.037Z,22.13
2022-10-22T08:21:13.262Z,21.77
2022-10-22T08:23:41.050Z,21.18
2022-10-22T08:26:08.613Z,20.27
2022-10-22T08:28:37.230Z,21.42
2022-10-22T08:31:09.483Z,22.06
2022-10-22T08:33:41.079Z,21.12
2022-10-22T08:36:11.570Z,20.62
2022-10-22T08:38:39.129Z,19.33
2022-10-22T08:41:21.655Z,17.97
2022-10-22T08:44:40.058Z,17.52
2022-10-22T08:47:40.973Z,16.55
2022-10-22T08:50:13.437Z,16.10
2022-10-22T08:52:45.478Z,15.67
2022-10-22T08:55:17.030Z,15.42
2022-10-22T08:57:52.148Z,15.33
2022-10-22T09:00:32.056Z,15.23
2022-10-22T09:03:10.248Z,15.05
2022-10-22T09:05:49.685Z,14.94
2022-10-22T09:08:20.844Z,14.88
2022-10-22T09:11:03.011Z,14.66
2022-10-22T09:13:31.005Z,14.56
2022-10-22T09:16:20.453Z,14.53
2022-10-22T09:19:17.221Z,14.52
2022-10-22T09:21:47.521Z,14.55
2022-10-22T09:24:29.549Z,14.64
2022-10-22T09:27:02.479Z,14.69
2022-10-22T09:29:34.888Z,14.75
2022-10-22T09:32:02.640Z,14.69
2022-10-22T09:34:30.845Z,14.74
2022-10-22T09:37:03.323Z,14.74
2022-10-22T09:39:37.958Z,14.72
2022-10-22T09:42:07.545Z,14.73
2022-10-22T09:44:37.572Z,14.65
2022-10-22T09:47:37.426Z,14.57
2022-10-22T09:50:38.880Z,14.59
2022-10-22T09:53:18.472Z,14.72
2022-10-22T09:55:51.698Z,14.79
2022-10-22T09:58:20.447Z,14.88
2022-10-22T10:00:59.855Z,14.93
2022-10-22T10:03:30.555Z,15.02
2022-10-22T10:06:05.858Z,14.95
2022-10-22T10:08:34.777Z,14.84
2022-10-22T10:11:11.737Z,14.89
2022-10-22T10:13:55.107Z,14.78
2022-10-22T10:16:54.526Z,14.85
2022-10-22T10:19:40.689Z,14.93
2022-10-22T10:22:14.170Z,15.04
2022-10-22T10:24:56.704Z,14.99
2022-10-22T10:27:42.747Z,15.09
2022-10-22T10:30:18.045Z,15.02
2022-10-22T10:33:23.404Z,15.08
2022-10-22T10:36:33.161Z,14.86
2022-10-22T10:39:32.893Z,14.80
2022-10-22T10:42:14.273Z,15.10
2022-10-22T10:45:11.154Z,15.30
2022-10-22T10:47:50.851Z,15.51
2022-10-22T10:50:38.162Z,15.53
2022-10-22T10:53:30.342Z,15.58
2022-10-22T10:56:05.889Z,15.52
2022-10-22T10:59:00.734Z,15.57
2022-10-22T11:01:35.962Z,15.58
2022-10-22T11:04:17.510Z,15.49
2022-10-22T11:06:46.591Z,15.45
2022-10-22T11:09:31.305Z,15.56
2022-10-22T11:12:05.490Z,15.57
2022-10-22T11:15:07.466Z,15.49
2022-10-22T11:17:43.565Z,15.36
2022-10-22T11:20:29.332Z,15.43
2022-10-22T11:23:21.041Z,15.52
2022-10-22T11:25:51.010Z,15.58
2022-10-22T11:28:24.793Z,15.70
2022-10-22T11:31:01.955Z,15.81
2022-10-22T11:33:39.904Z,15.78
2022-10-22T11:36:10.384Z,15.76
2022-10-22T11:38:38.877Z,15.81
2022-10-22T11:41:17.154Z,15.87
2022-10-22T11:43:57.672Z,15.79
2022-10-22T11:46:25.352Z,15.90
2022-10-22T11:49:14.173Z,15.90
2022-10-22T11:51:43.752Z,16.08
2022-10-22T11:54:31.371Z,16.22
2022-10-22T11:57:20.237Z,16.24
2022-10-22T11:59:48.187Z,16.32
2022-10-22T12:02:44.789Z,16.35
2022-10-22T12:05:40.235Z,16.39
2022-10-22T12:08:19.460Z,16.43
2022-10-22T12:11:01.443Z,16.52
2022-10-22T12:13:35.715Z,16.62
2022-10-22T12:16:05.186Z,16.68
2022-10-22T12:18:41.819Z,16.69
2022-10-22T12:21:17.556Z,16.58
2022-10-22T12:23:47.672Z,16.47
2022-10-22T12:26:34.745Z,16.29
2022-10-22T12:29:10.837Z,16.16
2022-10-22T12:31:40.590Z,16.09
2022-10-22T12:34:08.127Z,16.00
2022-10-22T12:36:37.488Z,15.87
2022-10-22T12:39:13.342Z,15.77
2022-10-22T12:41:41.394Z,15.71
2022-10-22T12:44:12.633Z,15.62
2022-10-22T12:46:40.706Z,15.57
2022-10-22T12:49:17.538Z,15.52
2022-10-22T12:51:48.739Z,15.44
2022-10-22T12:54:24.918Z,15.39
2022-10-22T12:56:53.099Z,15.36
2022-10-22T12:59:39.074Z,15.31
2022-10-22T13:02:18.568Z,15.26
2022-10-22T13:05:13.230Z,15.15
2022-10-22T13:07:43.373Z,15.19
2022-10-22T13:10:41.866Z,15.15
2022-10-22T13:13:33.450Z,15.14
2022-10-22T13:16:21.457Z,15.14
2022-10-22T13:18:50.791Z,15.17
2022-10-22T13:21:35.760Z,15.17
2022-10-22T13:24:20.964Z,15.15
2022-10-22T13:26:54.109Z,15.16
2022-10-22T13:29:23.607Z,15.17
2022-10-22T13:31:53.314Z,15.19
2022-10-22T13:34:23.844Z,15.21
2022-10-22T13:36:51.871Z,15.28
2022-10-22T13:39:21.920Z,15.35
2022-10-22T13:41:52.386Z,15.42
2022-10-22T13:44:22.452Z,15.44
2022-10-22T13:46:50.520Z,15.45
2022-10-22T13:49:23.341Z,15.42
2022-10-22T13:51:53.591Z,15.40
2022-10-22T13:54:25.815Z,15.35
2022-10-22T13:56:56.336Z,15.30
2022-10-22T13:59:24.205Z,15.27
2022-10-22T14:01:54.822Z,15.20
2022-10-22T14:04:24.651Z,15.21
2022-10-22T14:06:52.149Z,15.22
2022-10-22T14:09:20.806Z,15.18
2022-10-22T14:11:48.311Z,15.19
2022-10-22T14:14:17.285Z,15.19
2022-10-22T14:16:45.078Z,15.21
2022-10-22T14:19:18.025Z,15.20
2022-10-22T14:21:45.614Z,15.19
2022-10-22T14:24:13.586Z,15.16
2022-10-22T14:26:41.417Z,15.13
2022-10-22T14:29:10.174Z,15.09
2022-10-22T14:34:08.379Z,14.97
2022-10-22T14:36:35.945Z,14.93
2022-10-22T14:39:04.071Z,14.88
2022-10-22T14:41:31.889Z,14.85
2022-10-22T14:43:59.888Z,14.77
2022-10-22T14:46:27.505Z,14.71
2022-10-22T14:48:54.965Z,14.67
2022-10-22T14:51:24.053Z,14.63
2022-10-22T14:53:51.652Z,14.56
2022-10-22T14:56:21.992Z,14.51
2022-10-22T14:58:51.042Z,14.48
2022-10-22T15:01:18.822Z,14.45
2022-10-22T15:03:46.405Z,14.37
2022-10-22T15:06:14.115Z,14.36
2022-10-22T15:08:41.671Z,14.27
2022-10-22T15:11:12.729Z,14.27
2022-10-22T15:13:41.291Z,14.25
2022-10-22T15:16:10.734Z,14.21
2022-10-22T15:18:38.387Z,14.18
2022-10-22T15:21:09.333Z,14.13
2022-10-22T15:23:39.175Z,14.09
2022-10-22T15:26:10.792Z,14.07
2022-10-22T15:28:39.773Z,14.02
2022-10-22T15:31:08.388Z,13.98
2022-10-22T15:33:36.001Z,13.94
2022-10-22T15:36:15.194Z,13.92
2022-10-22T15:38:43.095Z,13.89
2022-10-22T15:41:13.573Z,13.86
2022-10-22T15:43:41.231Z,13.85
2022-10-22T15:46:20.488Z,13.83
2022-10-22T15:48:48.524Z,13.83
2022-10-22T15:51:20.276Z,13.78
2022-10-22T15:53:56.310Z,13.69
2022-10-22T15:56:28.163Z,13.61
2022-10-22T15:58:57.577Z,13.55
2022-10-22T16:01:26.508Z,13.45
2022-10-22T16:04:02.469Z,13.33
2022-10-22T16:06:35.416Z,13.25
2022-10-22T16:09:06.700Z,13.19
2022-10-22T16:11:34.497Z,13.07
2022-10-22T16:14:02.449Z,13.03
2022-10-22T16:16:32.876Z,13.00
2022-10-22T16:19:00.951Z,12.92
2022-10-22T16:21:30.836Z,12.87
2022-10-22T16:24:05.927Z,12.83
2022-10-22T16:26:34.643Z,12.78
2022-10-22T16:29:02.228Z,12.73
2022-10-22T16:31:30.555Z,12.68
2022-10-22T16:33:58.927Z,12.71
2022-10-22T16:36:26.446Z,12.69
2022-10-22T16:38:56.317Z,12.67
2022-10-22T16:41:25.759Z,12.67
2022-10-22T16:43:56.513Z,12.64
2022-10-22T16:46:25.699Z,12.61
2022-10-22T16:48:55.682Z,12.64
2022-10-22T16:51:25.991Z,12.59
2022-10-22T16:53:54.891Z,12.58
2022-10-22T16:56:22.496Z,12.58
2022-10-22T16:58:55.068Z,12.57
2022-10-22T17:01:25.914Z,12.52
2022-10-22T17:03:55.090Z,12.50
2022-10-22T17:06:26.215Z,12.44
2022-10-22T17:08:54.310Z,12.37
2022-10-22T17:11:24.338Z,12.32
2022-10-22T17:13:54.546Z,12.29
2022-10-22T17:16:26.020Z,12.20
2022-10-22T17:18:57.199Z,12.18
2022-10-22T17:21:27.575Z,12.10
2022-10-22T17:24:00.943Z,12.06
2022-10-22T17:26:28.611Z,11.97
2022-10-22T17:28:56.162Z,11.87
2022-10-22T17:31:29.031Z,11.80
2022-10-22T17:33:59.843Z,11.73
2022-10-22T17:36:31.797Z,11.69
2022-10-22T17:39:06.879Z,11.64
2022-10-22T17:41:37.046Z,11.62
2022-10-22T17:44:09.861Z,11.58
2022-10-22T17:46:39.967Z,11.57
2022-10-22T17:49:18.710Z,11.55
2022-10-22T17:51:47.110Z,11.54
2022-10-22T17:54:17.707Z,11.47
2022-10-22T17:56:45.363Z,11.46
2022-10-22T17:59:19.869Z,11.47
2022-10-22T18:01:47.795Z,11.40
2022-10-22T18:04:19.599Z,11.39
2022-10-22T18:06:48.641Z,11.35
2022-10-22T18:09:19.296Z,11.30
2022-10-22T18:11:51.341Z,11.28
2022-10-22T18:14:20.710Z,11.26
2022-10-22T18:16:49.103Z,11.23
2022-10-22T18:19:20.095Z,11.22
2022-10-22T18:21:50.662Z,11.22
2022-10-22T18:24:18.576Z,11.22
2022-10-22T18:26:46.085Z,11.18
2022-10-22T18:29:19.134Z,11.19
2022-10-22T18:31:47.047Z,11.20
2022-10-22T18:34:16.584Z,11.17
2022-10-22T18:36:49.152Z,11.18
2022-10-22T18:39:17.094Z,11.19
2022-10-22T18:41:44.890Z,11.12
2022-10-22T18:44:15.517Z,11.09
2022-10-22T18:46:46.221Z,11.08
2022-10-22T18:49:20.435Z,11.06
2022-10-22T18:51:52.614Z,11.03
2022-10-22T18:54:23.984Z,10.99
2022-10-22T18:56:52.980Z,10.95
2022-10-22T18:59:25.789Z,10.88
2022-10-22T19:01:55.025Z,10.86
2022-10-22T19:04:25.183Z,10.82
2022-10-22T19:06:52.680Z,10.84
2022-10-22T19:09:20.319Z,10.85
2022-10-22T19:11:47.856Z,10.81
2022-10-22T19:14:19.362Z,10.79
2022-10-22T19:16:47.022Z,10.73
2022-10-22T19:19:20.599Z,10.66
2022-10-22T19:21:48.944Z,10.58
2022-10-22T19:24:21.717Z,10.52
2022-10-22T19:26:50.742Z,10.45
2022-10-22T19:29:20.545Z,10.39
2022-10-22T19:31:50.545Z,10.27
2022-10-22T19:34:18.402Z,10.20
2022-10-22T19:36:46.165Z,10.11
2022-10-22T19:39:17.588Z,10.06
2022-10-22T19:41:47.646Z,10.00
2022-10-22T19:44:19.766Z,9.93
2022-10-22T19:46:47.461Z,9.87
2022-10-22T19:49:18.859Z,9.84
2022-10-22T19:51:49.771Z,9.78
2022-10-22T19:54:18.785Z,9.67
2022-10-22T19:56:47.064Z,9.67
2022-10-22T19:59:20.507Z,9.63
2022-10-22T20:01:48.018Z,9.58
2022-10-22T20:04:17.753Z,9.60
2022-10-22T20:06:47.097Z,9.60
2022-10-22T20:09:14.999Z,9.58
2022-10-22T20:11:43.435Z,9.57
2022-10-22T20:14:10.918Z,9.56
2022-10-22T20:16:40.206Z,9.57
2022-10-22T20:19:08.800Z,9.50
2022-10-22T20:21:37.765Z,9.44
2022-10-22T20:24:05.469Z,9.40
2022-10-22T20:26:32.991Z,9.37
2022-10-22T20:29:00.844Z,9.35
2022-10-22T20:31:30.124Z,9.28
2022-10-22T20:34:01.029Z,9.20
2022-10-22T20:36:30.046Z,9.15
2022-10-22T20:39:02.778Z,9.09
2022-10-22T20:41:30.625Z,9.08
2022-10-22T20:43:58.450Z,9.07
2022-10-22T20:46:29.154Z,9.17
2022-10-22T20:49:05.305Z,9.20
2022-10-22T20:51:33.127Z,9.28
2022-10-22T20:54:00.634Z,9.18
2022-10-22T20:56:29.168Z,9.17
2022-10-22T20:59:05.080Z,9.14
2022-10-22T21:02:00.827Z,9.14
2022-10-22T21:04:29.266Z,9.05
2022-10-22T21:06:57.995Z,8.93
2022-10-22T21:09:25.841Z,8.83
2022-10-22T21:14:26.808Z,8.75
2022-10-22T21:16:54.302Z,8.71
2022-10-22T21:19:24.498Z,8.62
2022-10-22T21:21:52.266Z,8.60
2022-10-22T21:24:24.530Z,8.59
2022-10-22T21:26:52.773Z,8.53
2022-10-22T21:29:21.418Z,8.49
2022-10-22T21:31:49.133Z,8.51
2022-10-22T21:34:17.260Z,8.49
2022-10-22T21:36:45.216Z,8.47
2022-10-22T21:39:14.298Z,8.45
2022-10-22T21:41:41.817Z,8.49
2022-10-22T21:44:11.662Z,8.59
2022-10-22T21:46:39.151Z,8.89
2022-10-22T21:49:06.913Z,9.01
2022-10-22T21:51:38.274Z,9.27
2022-10-22T21:54:06.030Z,9.54
2022-10-22T21:56:37.646Z,9.72
2022-10-22T21:59:07.616Z,10.00
2022-10-22T22:01:35.827Z,10.11
2022-10-22T22:04:03.618Z,10.24
2022-10-22T22:06:34.490Z,10.35
2022-10-22T22:09:03.767Z,10.42
2022-10-22T22:11:31.830Z,10.45
2022-10-22T22:14:00.275Z,10.48
2022-10-22T22:16:33.108Z,10.52
2022-10-22T22:21:32.304Z,10.49
2022-10-22T22:23:59.911Z,10.46
2022-10-22T22:26:30.285Z,10.43
2022-10-22T22:28:59.542Z,10.39
2022-10-22T22:31:32.533Z,10.26
2022-10-22T22:34:05.565Z,10.10
2022-10-22T22:36:38.938Z,9.89
2022-10-22T22:39:08.181Z,9.74
2022-10-22T22:41:35.984Z,9.62
2022-10-22T22:44:04.575Z,9.55
2022-10-22T22:46:32.577Z,9.55
2022-10-22T22:49:00.177Z,9.50
2022-10-22T22:51:29.085Z,9.43
2022-10-22T22:53:58.943Z,9.39
2022-10-22T22:56:30.838Z,9.34
2022-10-22T22:59:00.838Z,9.25
2022-10-22T23:01:30.911Z,9.20
2022-10-22T23:04:11.101Z,9.15
2022-10-22T23:06:40.782Z,9.08
2022-10-22T23:09:13.798Z,9.02
2022-10-22T23:11:44.218Z,8.96
2022-10-22T23:14:16.653Z,8.95
2022-10-22T23:16:47.391Z,8.94
2022-10-22T23:19:19.120Z,8.93
2022-10-22T23:21:50.998Z,8.94
2022-10-22T23:24:24.333Z,8.86
2022-10-22T23:26:56.302Z,8.91
2022-10-22T23:29:27.345Z,8.82
2022-10-22T23:31:55.854Z,8.72
2022-10-22T23:34:27.268Z,8.63
2022-10-22T23:36:56.401Z,8.56
2022-10-22T23:39:27.694Z,8.55
2022-10-22T23:41:58.386Z,8.52
2022-10-22T23:44:26.166Z,8.51
2022-10-22T23:46:53.972Z,8.46
2022-10-22T23:49:21.709Z,8.42
2022-10-22T23:51:49.259Z,8.42
2022-10-22T23:54:20.832Z,8.42
2022-10-22T23:56:48.723Z,8.42
2022-10-22T23:59:19.130Z,8.62
